sensor_id;sensor_type;location;lat;lon;timestamp;P1;durP1;ratioP1;P2;durP2;ratioP2
65597;SDS011;52267;51.984;20.956;2022-08-21T00:01:15;7.20;;;5.80;;
65597;SDS011;52267;51.984;20.956;2022-08-21T00:03:44;10.60;;;6.70;;
65597;SDS011;52267;51.984;20.956;2022-08-21T00:06:11;9.90;;;6.20;;
65597;SDS011;52267;51.984;20.956;2022-08-21T00:08:38;8.80;;;6.40;;
65597;SDS011;52267;51.984;20.956;2022-08-21T00:11:06;9.80;;;6.60;;
65597;SDS011;52267;51.984;20.956;2022-08-21T00:13:33;8.80;;;6.10;;
65597;SDS011;52267;51.984;20.956;2022-08-21T00:16:00;9.60;;;6.20;;
65597;SDS011;52267;51.984;20.956;2022-08-21T00:18:28;9.60;;;6.80;;
65597;SDS011;52267;51.984;20.956;2022-08-21T00:20:55;8.70;;;6.40;;
65597;SDS011;52267;51.984;20.956;2022-08-21T00:23:22;10.10;;;7.20;;
65597;SDS011;52267;51.984;20.956;2022-08-21T00:25:49;10.10;;;6.90;;
65597;SDS011;52267;51.984;20.956;2022-08-21T00:28:16;8.70;;;6.80;;
65597;SDS011;52267;51.984;20.956;2022-08-21T00:30:43;11.20;;;6.50;;
65597;SDS011;52267;51.984;20.956;2022-08-21T00:33:10;9.60;;;6.70;;
65597;SDS011;52267;51.984;20.956;2022-08-21T00:35:41;8.80;;;7.00;;
65597;SDS011;52267;51.984;20.956;2022-08-21T00:38:09;10.90;;;7.10;;
65597;SDS011;52267;51.984;20.956;2022-08-21T00:40:48;10.40;;;7.00;;
65597;SDS011;52267;51.984;20.956;2022-08-21T00:43:21;11.50;;;7.50;;
65597;SDS011;52267;51.984;20.956;2022-08-21T00:45:51;9.50;;;7.00;;
65597;SDS011;52267;51.984;20.956;2022-08-21T00:48:20;11.00;;;7.20;;
65597;SDS011;52267;51.984;20.956;2022-08-21T00:50:57;9.80;;;6.90;;
65597;SDS011;52267;51.984;20.956;2022-08-21T00:53:27;10.40;;;6.80;;
65597;SDS011;52267;51.984;20.956;2022-08-21T00:55:56;9.20;;;6.90;;
65597;SDS011;52267;51.984;20.956;2022-08-21T00:58:24;9.80;;;7.30;;
65597;SDS011;52267;51.984;20.956;2022-08-21T01:00:53;10.90;;;7.40;;
65597;SDS011;52267;51.984;20.956;2022-08-21T01:03:22;12.80;;;7.70;;
65597;SDS011;52267;51.984;20.956;2022-08-21T01:05:51;12.50;;;7.70;;
65597;SDS011;52267;51.984;20.956;2022-08-21T01:08:20;9.10;;;6.60;;
65597;SDS011;52267;51.984;20.956;2022-08-21T01:10:48;10.90;;;7.70;;
65597;SDS011;52267;51.984;20.956;2022-08-21T01:13:17;8.50;;;6.60;;
65597;SDS011;52267;51.984;20.956;2022-08-21T01:15:49;9.70;;;6.60;;
65597;SDS011;52267;51.984;20.956;2022-08-21T01:18:19;10.20;;;7.30;;
65597;SDS011;52267;51.984;20.956;2022-08-21T01:23:40;11.70;;;6.80;;
65597;SDS011;52267;51.984;20.956;2022-08-21T01:26:10;8.80;;;6.50;;
65597;SDS011;52267;51.984;20.956;2022-08-21T01:28:43;11.40;;;7.50;;
65597;SDS011;52267;51.984;20.956;2022-08-21T01:31:16;9.90;;;7.00;;
65597;SDS011;52267;51.984;20.956;2022-08-21T01:33:46;10.90;;;7.50;;
65597;SDS011;52267;51.984;20.956;2022-08-21T01:36:13;8.40;;;6.70;;
65597;SDS011;52267;51.984;20.956;2022-08-21T01:38:40;9.90;;;6.70;;
65597;SDS011;52267;51.984;20.956;2022-08-21T01:41:07;9.10;;;6.70;;
65597;SDS011;52267;51.984;20.956;2022-08-21T01:43:34;10.70;;;7.20;;
65597;SDS011;52267;51.984;20.956;2022-08-21T01:46:03;9.80;;;6.90;;
65597;SDS011;52267;51.984;20.956;2022-08-21T01:48:30;12.20;;;7.50;;
65597;SDS011;52267;51.984;20.956;2022-08-21T01:50:57;9.80;;;6.90;;
65597;SDS011;52267;51.984;20.956;2022-08-21T01:53:24;10.30;;;7.00;;
65597;SDS011;52267;51.984;20.956;2022-08-21T01:55:51;10.40;;;6.90;;
65597;SDS011;52267;51.984;20.956;2022-08-21T01:58:18;9.60;;;7.40;;
65597;SDS011;52267;51.984;20.956;2022-08-21T02:00:45;8.80;;;6.70;;
65597;SDS011;52267;51.984;20.956;2022-08-21T02:03:12;10.40;;;7.70;;
65597;SDS011;52267;51.984;20.956;2022-08-21T02:05:39;9.10;;;7.00;;
65597;SDS011;52267;51.984;20.956;2022-08-21T02:08:06;11.50;;;6.90;;
65597;SDS011;52267;51.984;20.956;2022-08-21T02:10:34;9.40;;;7.00;;
65597;SDS011;52267;51.984;20.956;2022-08-21T02:13:00;9.40;;;7.40;;
65597;SDS011;52267;51.984;20.956;2022-08-21T02:15:29;9.00;;;6.70;;
65597;SDS011;52267;51.984;20.956;2022-08-21T02:17:59;8.90;;;7.00;;
65597;SDS011;52267;51.984;20.956;2022-08-21T02:20:33;10.60;;;7.30;;
65597;SDS011;52267;51.984;20.956;2022-08-21T02:23:04;9.50;;;6.90;;
65597;SDS011;52267;51.984;20.956;2022-08-21T02:25:33;9.30;;;7.20;;
65597;SDS011;52267;51.984;20.956;2022-08-21T02:28:04;10.00;;;7.50;;
65597;SDS011;52267;51.984;20.956;2022-08-21T02:30:36;10.80;;;7.10;;
65597;SDS011;52267;51.984;20.956;2022-08-21T02:33:08;10.00;;;7.00;;
65597;SDS011;52267;51.984;20.956;2022-08-21T02:35:37;8.50;;;6.60;;
65597;SDS011;52267;51.984;20.956;2022-08-21T02:38:12;8.10;;;6.30;;
65597;SDS011;52267;51.984;20.956;2022-08-21T02:40:43;9.40;;;6.90;;
65597;SDS011;52267;51.984;20.956;2022-08-21T02:43:12;10.50;;;7.00;;
65597;SDS011;52267;51.984;20.956;2022-08-21T02:45:39;10.00;;;7.20;;
65597;SDS011;52267;51.984;20.956;2022-08-21T02:48:11;8.50;;;6.40;;
65597;SDS011;52267;51.984;20.956;2022-08-21T02:50:48;8.80;;;6.90;;
65597;SDS011;52267;51.984;20.956;2022-08-21T02:53:19;9.70;;;7.00;;
65597;SDS011;52267;51.984;20.956;2022-08-21T02:55:48;9.10;;;6.70;;
65597;SDS011;52267;51.984;20.956;2022-08-21T02:58:20;8.70;;;6.30;;
65597;SDS011;52267;51.984;20.956;2022-08-21T03:00:49;9.70;;;7.60;;
65597;SDS011;52267;51.984;20.956;2022-08-21T03:03:16;10.40;;;6.90;;
65597;SDS011;52267;51.984;20.956;2022-08-21T03:05:44;8.70;;;6.70;;
65597;SDS011;52267;51.984;20.956;2022-08-21T03:08:12;8.60;;;6.50;;
65597;SDS011;52267;51.984;20.956;2022-08-21T03:10:44;9.30;;;6.90;;
65597;SDS011;52267;51.984;20.956;2022-08-21T03:13:13;9.20;;;6.50;;
65597;SDS011;52267;51.984;20.956;2022-08-21T03:15:41;10.10;;;7.00;;
65597;SDS011;52267;51.984;20.956;2022-08-21T03:18:10;9.60;;;7.10;;
65597;SDS011;52267;51.984;20.956;2022-08-21T03:20:39;10.70;;;7.20;;
65597;SDS011;52267;51.984;20.956;2022-08-21T03:23:08;9.00;;;6.70;;
65597;SDS011;52267;51.984;20.956;2022-08-21T03:25:35;10.40;;;7.20;;
65597;SDS011;52267;51.984;20.956;2022-08-21T03:28:04;9.50;;;6.30;;
65597;SDS011;52267;51.984;20.956;2022-08-21T03:30:36;9.30;;;6.70;;
65597;SDS011;52267;51.984;20.956;2022-08-21T03:33:03;10.80;;;6.80;;
65597;SDS011;52267;51.984;20.956;2022-08-21T03:35:30;8.80;;;6.90;;
65597;SDS011;52267;51.984;20.956;2022-08-21T03:37:57;8.60;;;6.80;;
65597;SDS011;52267;51.984;20.956;2022-08-21T03:40:25;11.20;;;8.70;;
65597;SDS011;52267;51.984;20.956;2022-08-21T03:42:52;11.80;;;7.60;;
65597;SDS011;52267;51.984;20.956;2022-08-21T03:45:20;10.80;;;6.90;;
65597;SDS011;52267;51.984;20.956;2022-08-21T03:48:13;11.50;;;7.00;;
65597;SDS011;52267;51.984;20.956;2022-08-21T03:50:43;12.00;;;7.00;;
65597;SDS011;52267;51.984;20.956;2022-08-21T03:53:12;10.20;;;7.20;;
65597;SDS011;52267;51.984;20.956;2022-08-21T03:55:39;9.60;;;6.70;;
65597;SDS011;52267;51.984;20.956;2022-08-21T03:58:07;10.20;;;7.60;;
65597;SDS011;52267;51.984;20.956;2022-08-21T04:00:34;10.00;;;7.50;;
65597;SDS011;52267;51.984;20.956;2022-08-21T04:03:01;10.30;;;7.30;;
65597;SDS011;52267;51.984;20.956;2022-08-21T04:05:28;9.80;;;7.40;;
65597;SDS011;52267;51.984;20.956;2022-08-21T04:07:58;10.70;;;7.80;;
65597;SDS011;52267;51.984;20.956;2022-08-21T04:10:29;10.30;;;7.10;;
65597;SDS011;52267;51.984;20.956;2022-08-21T04:12:58;9.30;;;6.90;;
65597;SDS011;52267;51.984;20.956;2022-08-21T04:15:26;11.30;;;7.30;;
65597;SDS011;52267;51.984;20.956;2022-08-21T04:17:53;9.60;;;7.40;;
65597;SDS011;52267;51.984;20.956;2022-08-21T04:20:21;9.10;;;6.90;;
65597;SDS011;52267;51.984;20.956;2022-08-21T04:22:49;10.50;;;8.00;;
65597;SDS011;52267;51.984;20.956;2022-08-21T04:25:17;8.50;;;7.20;;
65597;SDS011;52267;51.984;20.956;2022-08-21T04:27:46;9.60;;;7.60;;
65597;SDS011;52267;51.984;20.956;2022-08-21T04:30:14;10.90;;;7.30;;
65597;SDS011;52267;51.984;20.956;2022-08-21T04:32:44;10.10;;;7.10;;
65597;SDS011;52267;51.984;20.956;2022-08-21T04:35:13;9.70;;;7.50;;
65597;SDS011;52267;51.984;20.956;2022-08-21T04:37:40;8.50;;;6.80;;
65597;SDS011;52267;51.984;20.956;2022-08-21T04:40:09;9.40;;;7.30;;
65597;SDS011;52267;51.984;20.956;2022-08-21T04:43:00;10.40;;;7.80;;
65597;SDS011;52267;51.984;20.956;2022-08-21T04:45:33;10.40;;;7.20;;
65597;SDS011;52267;51.984;20.956;2022-08-21T04:48:03;8.60;;;7.20;;
65597;SDS011;52267;51.984;20.956;2022-08-21T04:50:47;10.40;;;7.00;;
65597;SDS011;52267;51.984;20.956;2022-08-21T04:53:38;10.00;;;6.70;;
65597;SDS011;52267;51.984;20.956;2022-08-21T04:56:12;9.00;;;7.00;;
65597;SDS011;52267;51.984;20.956;2022-08-21T04:58:42;9.00;;;6.60;;
65597;SDS011;52267;51.984;20.956;2022-08-21T05:01:15;8.90;;;7.00;;
65597;SDS011;52267;51.984;20.956;2022-08-21T05:03:47;8.50;;;6.00;;
65597;SDS011;52267;51.984;20.956;2022-08-21T05:06:16;8.80;;;6.50;;
65597;SDS011;52267;51.984;20.956;2022-08-21T05:08:46;9.50;;;6.20;;
65597;SDS011;52267;51.984;20.956;2022-08-21T05:11:14;9.60;;;6.30;;
65597;SDS011;52267;51.984;20.956;2022-08-21T05:13:41;9.40;;;7.00;;
65597;SDS011;52267;51.984;20.956;2022-08-21T05:16:09;9.40;;;6.50;;
65597;SDS011;52267;51.984;20.956;2022-08-21T05:18:36;7.90;;;6.30;;
65597;SDS011;52267;51.984;20.956;2022-08-21T05:21:03;8.90;;;6.70;;
65597;SDS011;52267;51.984;20.956;2022-08-21T05:23:30;8.50;;;6.40;;
65597;SDS011;52267;51.984;20.956;2022-08-21T05:25:57;11.00;;;6.60;;
65597;SDS011;52267;51.984;20.956;2022-08-21T05:28:24;7.10;;;6.00;;
65597;SDS011;52267;51.984;20.956;2022-08-21T05:30:51;7.20;;;6.20;;
65597;SDS011;52267;51.984;20.956;2022-08-21T05:33:19;7.90;;;6.30;;
65597;SDS011;52267;51.984;20.956;2022-08-21T05:35:49;7.50;;;6.20;;
65597;SDS011;52267;51.984;20.956;2022-08-21T05:38:19;6.70;;;5.40;;
65597;SDS011;52267;51.984;20.956;2022-08-21T05:40:46;7.00;;;5.60;;
65597;SDS011;52267;51.984;20.956;2022-08-21T05:43:13;7.50;;;5.50;;
65597;SDS011;52267;51.984;20.956;2022-08-21T05:45:41;7.90;;;6.10;;
65597;SDS011;52267;51.984;20.956;2022-08-21T05:48:11;6.90;;;5.70;;
65597;SDS011;52267;51.984;20.956;2022-08-21T05:53:07;8.50;;;6.30;;
65597;SDS011;52267;51.984;20.956;2022-08-21T05:55:36;9.50;;;6.10;;
65597;SDS011;52267;51.984;20.956;2022-08-21T05:58:04;8.80;;;6.00;;
65597;SDS011;52267;51.984;20.956;2022-08-21T06:00:31;10.80;;;6.90;;
65597;SDS011;52267;51.984;20.956;2022-08-21T06:02:59;9.50;;;6.00;;
65597;SDS011;52267;51.984;20.956;2022-08-21T06:05:26;8.90;;;6.60;;
65597;SDS011;52267;51.984;20.956;2022-08-21T06:07:53;8.30;;;5.80;;
65597;SDS011;52267;51.984;20.956;2022-08-21T06:10:21;9.60;;;6.10;;
65597;SDS011;52267;51.984;20.956;2022-08-21T06:12:52;11.00;;;6.30;;
65597;SDS011;52267;51.984;20.956;2022-08-21T06:15:20;8.50;;;6.30;;
65597;SDS011;52267;51.984;20.956;2022-08-21T06:17:47;10.40;;;7.00;;
65597;SDS011;52267;51.984;20.956;2022-08-21T06:20:14;8.00;;;6.60;;
65597;SDS011;52267;51.984;20.956;2022-08-21T06:22:41;8.30;;;6.60;;
65597;SDS011;52267;51.984;20.956;2022-08-21T06:25:08;9.70;;;6.80;;
65597;SDS011;52267;51.984;20.956;2022-08-21T06:27:36;8.70;;;6.70;;
65597;SDS011;52267;51.984;20.956;2022-08-21T06:30:05;7.90;;;6.00;;
65597;SDS011;52267;51.984;20.956;2022-08-21T06:32:36;8.60;;;6.50;;
65597;SDS011;52267;51.984;20.956;2022-08-21T06:35:04;9.30;;;6.40;;
65597;SDS011;52267;51.984;20.956;2022-08-21T06:37:32;10.30;;;7.30;;
65597;SDS011;52267;51.984;20.956;2022-08-21T06:39:59;9.00;;;6.70;;
65597;SDS011;52267;51.984;20.956;2022-08-21T06:42:26;12.70;;;7.10;;
65597;SDS011;52267;51.984;20.956;2022-08-21T06:44:59;8.20;;;6.30;;
65597;SDS011;52267;51.984;20.956;2022-08-21T06:47:51;10.50;;;7.20;;
65597;SDS011;52267;51.984;20.956;2022-08-21T06:50:18;8.00;;;6.30;;
65597;SDS011;52267;51.984;20.956;2022-08-21T06:52:45;10.50;;;6.70;;
65597;SDS011;52267;51.984;20.956;2022-08-21T06:55:12;9.70;;;6.90;;
65597;SDS011;52267;51.984;20.956;2022-08-21T06:57:39;8.20;;;6.70;;
65597;SDS011;52267;51.984;20.956;2022-08-21T07:00:07;8.70;;;6.10;;
65597;SDS011;52267;51.984;20.956;2022-08-21T07:02:35;8.50;;;6.70;;
65597;SDS011;52267;51.984;20.956;2022-08-21T07:05:03;9.50;;;6.20;;
65597;SDS011;52267;51.984;20.956;2022-08-21T07:07:30;8.90;;;5.90;;
65597;SDS011;52267;51.984;20.956;2022-08-21T07:09:57;7.70;;;5.90;;
65597;SDS011;52267;51.984;20.956;2022-08-21T07:12:24;6.70;;;5.90;;
65597;SDS011;52267;51.984;20.956;2022-08-21T07:14:52;11.70;;;6.30;;
65597;SDS011;52267;51.984;20.956;2022-08-21T07:17:19;9.20;;;6.60;;
65597;SDS011;52267;51.984;20.956;2022-08-21T07:19:46;8.90;;;6.10;;
65597;SDS011;52267;51.984;20.956;2022-08-21T07:22:14;8.70;;;5.90;;
65597;SDS011;52267;51.984;20.956;2022-08-21T07:24:42;8.60;;;6.10;;
65597;SDS011;52267;51.984;20.956;2022-08-21T07:27:09;9.20;;;6.70;;
65597;SDS011;52267;51.984;20.956;2022-08-21T07:29:36;7.60;;;6.00;;
65597;SDS011;52267;51.984;20.956;2022-08-21T07:32:04;7.80;;;5.50;;
65597;SDS011;52267;51.984;20.956;2022-08-21T07:34:31;9.50;;;6.00;;
65597;SDS011;52267;51.984;20.956;2022-08-21T07:36:58;6.20;;;5.00;;
65597;SDS011;52267;51.984;20.956;2022-08-21T07:39:25;7.90;;;6.10;;
65597;SDS011;52267;51.984;20.956;2022-08-21T07:41:52;6.90;;;5.70;;
65597;SDS011;52267;51.984;20.956;2022-08-21T07:44:19;7.60;;;5.60;;
65597;SDS011;52267;51.984;20.956;2022-08-21T07:46:46;7.60;;;5.60;;
65597;SDS011;52267;51.984;20.956;2022-08-21T07:49:13;6.50;;;5.30;;
65597;SDS011;52267;51.984;20.956;2022-08-21T07:51:40;8.70;;;5.40;;
65597;SDS011;52267;51.984;20.956;2022-08-21T07:54:07;9.40;;;5.20;;
65597;SDS011;52267;51.984;20.956;2022-08-21T07:56:34;8.00;;;5.60;;
65597;SDS011;52267;51.984;20.956;2022-08-21T07:59:02;7.40;;;5.30;;
65597;SDS011;52267;51.984;20.956;2022-08-21T08:01:29;7.90;;;5.50;;
65597;SDS011;52267;51.984;20.956;2022-08-21T08:03:57;6.70;;;5.30;;
65597;SDS011;52267;51.984;20.956;2022-08-21T08:06:24;7.30;;;5.30;;
65597;SDS011;52267;51.984;20.956;2022-08-21T08:08:52;7.70;;;5.00;;
65597;SDS011;52267;51.984;20.956;2022-08-21T08:11:19;6.30;;;5.30;;
65597;SDS011;52267;51.984;20.956;2022-08-21T08:13:47;6.70;;;4.90;;
65597;SDS011;52267;51.984;20.956;2022-08-21T08:16:16;8.20;;;5.40;;
65597;SDS011;52267;51.984;20.956;2022-08-21T08:18:45;7.60;;;4.90;;
65597;SDS011;52267;51.984;20.956;2022-08-21T08:21:13;8.50;;;5.10;;
65597;SDS011;52267;51.984;20.956;2022-08-21T08:23:40;7.30;;;5.50;;
65597;SDS011;52267;51.984;20.956;2022-08-21T08:26:07;6.70;;;5.10;;
65597;SDS011;52267;51.984;20.956;2022-08-21T08:28:34;7.10;;;5.00;;
65597;SDS011;52267;51.984;20.956;2022-08-21T08:31:01;7.10;;;5.50;;
65597;SDS011;52267;51.984;20.956;2022-08-21T08:33:28;6.20;;;5.30;;
65597;SDS011;52267;51.984;20.956;2022-08-21T08:35:56;7.60;;;5.20;;
65597;SDS011;52267;51.984;20.956;2022-08-21T08:38:24;8.70;;;5.30;;
65597;SDS011;52267;51.984;20.956;2022-08-21T08:43:52;6.70;;;5.40;;
65597;SDS011;52267;51.984;20.956;2022-08-21T08:46:30;6.70;;;4.80;;
65597;SDS011;52267;51.984;20.956;2022-08-21T08:49:13;6.70;;;5.20;;
65597;SDS011;52267;51.984;20.956;2022-08-21T08:51:49;6.80;;;5.40;;
65597;SDS011;52267;51.984;20.956;2022-08-21T08:57:16;8.30;;;4.80;;
65597;SDS011;52267;51.984;20.956;2022-08-21T08:59:47;5.70;;;4.60;;
65597;SDS011;52267;51.984;20.956;2022-08-21T09:02:19;7.00;;;5.50;;
65597;SDS011;52267;51.984;20.956;2022-08-21T09:04:48;7.40;;;5.00;;
65597;SDS011;52267;51.984;20.956;2022-08-21T09:07:32;6.00;;;4.90;;
65597;SDS011;52267;51.984;20.956;2022-08-21T09:10:29;7.20;;;4.50;;
65597;SDS011;52267;51.984;20.956;2022-08-21T09:16:23;6.20;;;4.80;;
65597;SDS011;52267;51.984;20.956;2022-08-21T09:25:33;4.90;;;4.20;;
65597;SDS011;52267;51.984;20.956;2022-08-21T09:28:11;5.70;;;3.90;;
65597;SDS011;52267;51.984;20.956;2022-08-21T09:30:41;8.50;;;5.40;;
65597;SDS011;52267;51.984;20.956;2022-08-21T09:33:11;7.60;;;4.10;;
65597;SDS011;52267;51.984;20.956;2022-08-21T09:35:51;5.80;;;4.70;;
65597;SDS011;52267;51.984;20.956;2022-08-21T09:38:34;5.90;;;4.90;;
65597;SDS011;52267;51.984;20.956;2022-08-21T09:41:05;5.00;;;4.30;;
65597;SDS011;52267;51.984;20.956;2022-08-21T09:43:34;6.50;;;4.20;;
65597;SDS011;52267;51.984;20.956;2022-08-21T09:46:08;5.60;;;4.60;;
65597;SDS011;52267;51.984;20.956;2022-08-21T09:49:04;5.10;;;4.00;;
65597;SDS011;52267;51.984;20.956;2022-08-21T09:51:35;5.20;;;4.50;;
65597;SDS011;52267;51.984;20.956;2022-08-21T09:56:57;7.40;;;4.60;;
65597;SDS011;52267;51.984;20.956;2022-08-21T09:59:45;7.80;;;3.60;;
65597;SDS011;52267;51.984;20.956;2022-08-21T10:02:30;7.20;;;4.90;;
65597;SDS011;52267;51.984;20.956;2022-08-21T10:07:49;7.80;;;5.10;;
65597;SDS011;52267;51.984;20.956;2022-08-21T10:10:20;5.50;;;4.10;;
65597;SDS011;52267;51.984;20.956;2022-08-21T10:13:07;5.50;;;3.80;;
65597;SDS011;52267;51.984;20.956;2022-08-21T10:19:24;4.60;;;3.70;;
65597;SDS011;52267;51.984;20.956;2022-08-21T10:22:33;8.10;;;4.00;;
65597;SDS011;52267;51.984;20.956;2022-08-21T10:28:27;5.20;;;3.80;;
65597;SDS011;52267;51.984;20.956;2022-08-21T10:37:01;5.50;;;3.40;;
65597;SDS011;52267;51.984;20.956;2022-08-21T10:39:36;5.80;;;4.00;;
65597;SDS011;52267;51.984;20.956;2022-08-21T10:42:52;5.00;;;4.10;;
65597;SDS011;52267;51.984;20.956;2022-08-21T10:45:55;5.00;;;3.90;;
65597;SDS011;52267;51.984;20.956;2022-08-21T10:48:54;5.60;;;3.80;;
65597;SDS011;52267;51.984;20.956;2022-08-21T10:55:04;7.60;;;3.70;;
65597;SDS011;52267;51.984;20.956;2022-08-21T10:57:49;4.60;;;3.70;;
65597;SDS011;52267;51.984;20.956;2022-08-21T11:00:49;5.80;;;3.90;;
65597;SDS011;52267;51.984;20.956;2022-08-21T11:03:47;5.20;;;3.40;;
65597;SDS011;52267;51.984;20.956;2022-08-21T11:06:24;6.30;;;3.10;;
65597;SDS011;52267;51.984;20.956;2022-08-21T11:08:58;4.90;;;3.60;;
65597;SDS011;52267;51.984;20.956;2022-08-21T11:11:44;5.00;;;3.90;;
65597;SDS011;52267;51.984;20.956;2022-08-21T11:14:48;5.40;;;3.30;;
65597;SDS011;52267;51.984;20.956;2022-08-21T11:17:36;5.00;;;3.80;;
65597;SDS011;52267;51.984;20.956;2022-08-21T11:20:15;4.70;;;3.30;;
65597;SDS011;52267;51.984;20.956;2022-08-21T11:22:54;4.50;;;3.40;;
65597;SDS011;52267;51.984;20.956;2022-08-21T11:25:39;4.70;;;3.20;;
65597;SDS011;52267;51.984;20.956;2022-08-21T11:28:13;4.30;;;2.90;;
65597;SDS011;52267;51.984;20.956;2022-08-21T11:36:58;6.40;;;3.70;;
65597;SDS011;52267;51.984;20.956;2022-08-21T11:42:25;4.60;;;3.40;;
65597;SDS011;52267;51.984;20.956;2022-08-21T11:45:23;4.60;;;3.20;;
65597;SDS011;52267;51.984;20.956;2022-08-21T11:48:15;4.40;;;3.40;;
65597;SDS011;52267;51.984;20.956;2022-08-21T11:51:13;4.30;;;3.20;;
65597;SDS011;52267;51.984;20.956;2022-08-21T11:53:50;3.70;;;2.90;;
65597;SDS011;52267;51.984;20.956;2022-08-21T11:56:37;4.60;;;3.20;;
65597;SDS011;52267;51.984;20.956;2022-08-21T11:59:13;5.70;;;3.50;;
65597;SDS011;52267;51.984;20.956;2022-08-21T12:01:48;5.00;;;3.50;;
65597;SDS011;52267;51.984;20.956;2022-08-21T12:04:28;6.90;;;3.70;;
65597;SDS011;52267;51.984;20.956;2022-08-21T12:07:11;6.30;;;3.40;;
65597;SDS011;52267;51.984;20.956;2022-08-21T12:09:39;4.30;;;3.40;;
65597;SDS011;52267;51.984;20.956;2022-08-21T12:14:51;5.10;;;3.30;;
65597;SDS011;52267;51.984;20.956;2022-08-21T12:17:38;4.50;;;3.40;;
65597;SDS011;52267;51.984;20.956;2022-08-21T12:20:23;4.70;;;3.30;;
65597;SDS011;52267;51.984;20.956;2022-08-21T12:23:45;6.40;;;3.90;;
65597;SDS011;52267;51.984;20.956;2022-08-21T12:28:40;5.80;;;3.60;;
65597;SDS011;52267;51.984;20.956;2022-08-21T12:31:23;5.30;;;3.30;;
65597;SDS011;52267;51.984;20.956;2022-08-21T12:33:56;4.50;;;3.30;;
65597;SDS011;52267;51.984;20.956;2022-08-21T12:36:42;4.20;;;3.30;;
65597;SDS011;52267;51.984;20.956;2022-08-21T12:39:15;4.70;;;3.50;;
65597;SDS011;52267;51.984;20.956;2022-08-21T12:44:48;4.40;;;3.20;;
65597;SDS011;52267;51.984;20.956;2022-08-21T12:47:34;4.40;;;3.00;;
65597;SDS011;52267;51.984;20.956;2022-08-21T12:50:20;6.20;;;3.60;;
65597;SDS011;52267;51.984;20.956;2022-08-21T12:53:10;5.50;;;3.60;;
65597;SDS011;52267;51.984;20.956;2022-08-21T12:55:47;5.20;;;3.60;;
65597;SDS011;52267;51.984;20.956;2022-08-21T12:58:23;6.20;;;3.50;;
65597;SDS011;52267;51.984;20.956;2022-08-21T13:04:22;6.20;;;3.30;;
65597;SDS011;52267;51.984;20.956;2022-08-21T13:07:14;4.90;;;3.50;;
65597;SDS011;52267;51.984;20.956;2022-08-21T13:09:58;5.30;;;2.80;;
65597;SDS011;52267;51.984;20.956;2022-08-21T13:12:29;4.70;;;3.20;;
65597;SDS011;52267;51.984;20.956;2022-08-21T13:15:03;6.00;;;3.10;;
65597;SDS011;52267;51.984;20.956;2022-08-21T13:17:35;5.40;;;3.00;;
65597;SDS011;52267;51.984;20.956;2022-08-21T13:20:09;5.10;;;3.20;;
65597;SDS011;52267;51.984;20.956;2022-08-21T13:22:49;5.70;;;3.00;;
65597;SDS011;52267;51.984;20.956;2022-08-21T13:25:19;5.60;;;4.00;;
65597;SDS011;52267;51.984;20.956;2022-08-21T13:30:32;4.40;;;3.20;;
65597;SDS011;52267;51.984;20.956;2022-08-21T13:33:01;4.50;;;3.60;;
65597;SDS011;52267;51.984;20.956;2022-08-21T13:35:35;4.70;;;3.20;;
65597;SDS011;52267;51.984;20.956;2022-08-21T13:38:11;4.50;;;2.70;;
65597;SDS011;52267;51.984;20.956;2022-08-21T13:41:01;4.10;;;2.80;;
65597;SDS011;52267;51.984;20.956;2022-08-21T13:43:33;4.20;;;2.90;;
65597;SDS011;52267;51.984;20.956;2022-08-21T13:46:07;4.10;;;2.90;;
65597;SDS011;52267;51.984;20.956;2022-08-21T13:48:36;4.70;;;3.60;;
65597;SDS011;52267;51.984;20.956;2022-08-21T13:51:04;4.70;;;3.20;;
65597;SDS011;52267;51.984;20.956;2022-08-21T13:56:32;5.00;;;3.50;;
65597;SDS011;52267;51.984;20.956;2022-08-21T13:59:08;6.20;;;3.10;;
65597;SDS011;52267;51.984;20.956;2022-08-21T14:01:54;4.60;;;3.30;;
65597;SDS011;52267;51.984;20.956;2022-08-21T14:07:36;4.60;;;3.40;;
65597;SDS011;52267;51.984;20.956;2022-08-21T14:10:16;4.70;;;3.40;;
65597;SDS011;52267;51.984;20.956;2022-08-21T14:12:54;4.00;;;3.30;;
65597;SDS011;52267;51.984;20.956;2022-08-21T14:15:26;5.90;;;3.70;;
65597;SDS011;52267;51.984;20.956;2022-08-21T14:18:09;4.90;;;3.30;;
65597;SDS011;52267;51.984;20.956;2022-08-21T14:20:40;4.00;;;2.80;;
65597;SDS011;52267;51.984;20.956;2022-08-21T14:23:07;5.60;;;3.40;;
65597;SDS011;52267;51.984;20.956;2022-08-21T14:25:43;4.70;;;3.50;;
65597;SDS011;52267;51.984;20.956;2022-08-21T14:28:26;5.70;;;3.90;;
65597;SDS011;52267;51.984;20.956;2022-08-21T14:30:56;4.70;;;3.10;;
65597;SDS011;52267;51.984;20.956;2022-08-21T14:33:28;5.00;;;3.60;;
65597;SDS011;52267;51.984;20.956;2022-08-21T14:35:58;4.40;;;3.40;;
65597;SDS011;52267;51.984;20.956;2022-08-21T14:38:27;4.90;;;3.70;;
65597;SDS011;52267;51.984;20.956;2022-08-21T14:41:03;4.70;;;3.90;;
65597;SDS011;52267;51.984;20.956;2022-08-21T14:43:35;5.40;;;3.80;;
65597;SDS011;52267;51.984;20.956;2022-08-21T14:46:02;5.90;;;3.80;;
65597;SDS011;52267;51.984;20.956;2022-08-21T14:48:29;5.00;;;3.50;;
65597;SDS011;52267;51.984;20.956;2022-08-21T14:50:56;5.30;;;3.50;;
65597;SDS011;52267;51.984;20.956;2022-08-21T14:53:22;4.30;;;3.70;;
65597;SDS011;52267;51.984;20.956;2022-08-21T14:55:49;4.50;;;3.70;;
65597;SDS011;52267;51.984;20.956;2022-08-21T14:58:33;5.70;;;3.80;;
65597;SDS011;52267;51.984;20.956;2022-08-21T15:01:02;6.20;;;4.00;;
65597;SDS011;52267;51.984;20.956;2022-08-21T15:03:30;5.50;;;3.90;;
65597;SDS011;52267;51.984;20.956;2022-08-21T15:05:58;6.10;;;4.30;;
65597;SDS011;52267;51.984;20.956;2022-08-21T15:08:26;6.30;;;4.10;;
65597;SDS011;52267;51.984;20.956;2022-08-21T15:10:53;6.60;;;3.50;;
65597;SDS011;52267;51.984;20.956;2022-08-21T15:13:21;5.60;;;4.00;;
65597;SDS011;52267;51.984;20.956;2022-08-21T15:15:50;5.70;;;4.20;;
65597;SDS011;52267;51.984;20.956;2022-08-21T15:18:20;5.20;;;3.90;;
65597;SDS011;52267;51.984;20.956;2022-08-21T15:20:48;7.20;;;4.10;;
65597;SDS011;52267;51.984;20.956;2022-08-21T15:23:16;5.70;;;3.80;;
65597;SDS011;52267;51.984;20.956;2022-08-21T15:25:46;5.00;;;3.60;;
65597;SDS011;52267;51.984;20.956;2022-08-21T15:28:15;4.60;;;3.50;;
65597;SDS011;52267;51.984;20.956;2022-08-21T15:30:44;4.80;;;3.80;;
65597;SDS011;52267;51.984;20.956;2022-08-21T15:33:11;5.10;;;4.10;;
65597;SDS011;52267;51.984;20.956;2022-08-21T15:35:38;5.20;;;3.40;;
65597;SDS011;52267;51.984;20.956;2022-08-21T15:38:06;4.70;;;3.70;;
65597;SDS011;52267;51.984;20.956;2022-08-21T15:40:35;4.50;;;3.60;;
65597;SDS011;52267;51.984;20.956;2022-08-21T15:43:04;4.30;;;3.50;;
65597;SDS011;52267;51.984;20.956;2022-08-21T15:45:32;5.80;;;3.50;;
65597;SDS011;52267;51.984;20.956;2022-08-21T15:48:00;5.80;;;3.40;;
65597;SDS011;52267;51.984;20.956;2022-08-21T15:50:28;6.00;;;3.80;;
65597;SDS011;52267;51.984;20.956;2022-08-21T15:53:02;5.50;;;3.70;;
65597;SDS011;52267;51.984;20.956;2022-08-21T15:55:29;5.30;;;3.90;;
65597;SDS011;52267;51.984;20.956;2022-08-21T15:58:00;4.90;;;3.60;;
65597;SDS011;52267;51.984;20.956;2022-08-21T16:00:27;5.60;;;4.20;;
65597;SDS011;52267;51.984;20.956;2022-08-21T16:02:57;5.10;;;3.90;;
65597;SDS011;52267;51.984;20.956;2022-08-21T16:05:25;4.80;;;3.50;;
65597;SDS011;52267;51.984;20.956;2022-08-21T16:07:52;5.90;;;3.80;;
65597;SDS011;52267;51.984;20.956;2022-08-21T16:10:21;5.40;;;4.00;;
65597;SDS011;52267;51.984;20.956;2022-08-21T16:12:58;5.70;;;4.10;;
65597;SDS011;52267;51.984;20.956;2022-08-21T16:15:29;4.60;;;3.60;;